sensor_id;sensor_type;location;lat;lon;timestamp;pressure;altitude;pressure_sealevel;temperature;humidity
63552;BME280;49698;48.072;7.800;2023-02-11T00:01:27;101503.47;;;-2.38;87.60
63552;BME280;49698;48.072;7.800;2023-02-11T00:03:56;101511.53;;;-2.39;87.67
63552;BME280;49698;48.072;7.800;2023-02-11T00:06:28;101510.03;;;-2.42;87.85
63552;BME280;49698;48.072;7.800;2023-02-11T00:08:56;101512.66;;;-2.42;87.92
63552;BME280;49698;48.072;7.800;2023-02-11T00:11:25;101509.19;;;-2.42;87.45
63552;BME280;49698;48.072;7.800;2023-02-11T00:13:56;101510.31;;;-2.45;87.65
63552;BME280;49698;48.072;7.800;2023-02-11T00:16:27;101505.31;;;-2.48;88.15
63552;BME280;49698;48.072;7.800;2023-02-11T00:18:58;101506.59;;;-2.52;87.74
63552;BME280;49698;48.072;7.800;2023-02-11T00:21:26;101507.72;;;-2.55;88.36
63552;BME280;49698;48.072;7.800;2023-02-11T00:23:55;101507.19;;;-2.58;88.39
63552;BME280;49698;48.072;7.800;2023-02-11T00:26:27;101508.31;;;-2.61;88.37
63552;BME280;49698;48.072;7.800;2023-02-11T00:28:56;101505.13;;;-2.64;88.48
63552;BME280;49698;48.072;7.800;2023-02-11T00:31:26;101513.19;;;-2.66;88.21
63552;BME280;49698;48.072;7.800;2023-02-11T00:33:55;101497.50;;;-2.67;88.72
63552;BME280;49698;48.072;7.800;2023-02-11T00:36:24;101496.56;;;-2.66;88.70
63552;BME280;49698;48.072;7.800;2023-02-11T00:38:54;101494.88;;;-2.67;88.58
63552;BME280;49698;48.072;7.800;2023-02-11T00:41:23;101487.84;;;-2.67;88.63
63552;BME280;49698;48.072;7.800;2023-02-11T00:43:51;101494.88;;;-2.67;88.35
63552;BME280;49698;48.072;7.800;2023-02-11T00:46:20;101494.22;;;-2.69;88.67
63552;BME280;49698;48.072;7.800;2023-02-11T00:48:49;101500.47;;;-2.71;88.66
63552;BME280;49698;48.072;7.800;2023-02-11T00:51:20;101502.09;;;-2.69;88.50
63552;BME280;49698;48.072;7.800;2023-02-11T00:53:49;101506.38;;;-2.68;89.04
63552;BME280;49698;48.072;7.800;2023-02-11T00:56:17;101505.72;;;-2.71;88.65
63552;BME280;49698;48.072;7.800;2023-02-11T00:58:45;101504.19;;;-2.73;88.82
63552;BME280;49698;48.072;7.800;2023-02-11T01:01:13;101502.66;;;-2.76;88.68
63552;BME280;49698;48.072;7.800;2023-02-11T01:03:41;101507.09;;;-2.76;88.91
63552;BME280;49698;48.072;7.800;2023-02-11T01:06:11;101513.63;;;-2.80;88.83
63552;BME280;49698;48.072;7.800;2023-02-11T01:08:39;101515.44;;;-2.81;88.77
63552;BME280;49698;48.072;7.800;2023-02-11T01:11:11;101510.19;;;-2.81;88.89
63552;BME280;49698;48.072;7.800;2023-02-11T01:13:39;101505.19;;;-2.84;88.82
63552;BME280;49698;48.072;7.800;2023-02-11T01:16:08;101508.81;;;-2.85;89.19
63552;BME280;49698;48.072;7.800;2023-02-11T01:18:36;101512.41;;;-2.86;88.72
63552;BME280;49698;48.072;7.800;2023-02-11T01:21:04;101514.06;;;-2.85;89.12
63552;BME280;49698;48.072;7.800;2023-02-11T01:23:34;101510.47;;;-2.84;88.72
63552;BME280;49698;48.072;7.800;2023-02-11T01:26:03;101509.63;;;-2.84;89.08
63552;BME280;49698;48.072;7.800;2023-02-11T01:28:32;101508.81;;;-2.85;88.90
63552;BME280;49698;48.072;7.800;2023-02-11T01:31:00;101512.41;;;-2.86;88.88
63552;BME280;49698;48.072;7.800;2023-02-11T01:33:31;101508.81;;;-2.85;89.21
63552;BME280;49698;48.072;7.800;2023-02-11T01:36:00;101506.84;;;-2.83;89.12
63552;BME280;49698;48.072;7.800;2023-02-11T01:38:29;101498.94;;;-2.83;88.94
63552;BME280;49698;48.072;7.800;2023-02-11T01:41:01;101508.81;;;-2.85;89.59
63552;BME280;49698;48.072;7.800;2023-02-11T01:43:33;101510.34;;;-2.82;89.31
63552;BME280;49698;48.072;7.800;2023-02-11T01:46:11;101508.53;;;-2.82;89.65
63552;BME280;49698;48.072;7.800;2023-02-11T01:48:43;101502.44;;;-2.82;89.71
63552;BME280;49698;48.072;7.800;2023-02-11T01:51:15;101499.94;;;-2.84;89.27
63552;BME280;49698;48.072;7.800;2023-02-11T01:53:45;101493.19;;;-2.86;89.06
63552;BME280;49698;48.072;7.800;2023-02-11T01:56:34;101489.00;;;-2.89;89.09
63552;BME280;49698;48.072;7.800;2023-02-11T01:59:23;101484.72;;;-2.90;89.69
63552;BME280;49698;48.072;7.800;2023-02-11T02:01:56;101490.94;;;-2.91;89.06
63552;BME280;49698;48.072;7.800;2023-02-11T02:04:29;101489.47;;;-2.93;89.46
63552;BME280;49698;48.072;7.800;2023-02-11T02:07:01;101497.19;;;-2.92;89.48
63552;BME280;49698;48.072;7.800;2023-02-11T02:09:36;101493.59;;;-2.91;89.52
63552;BME280;49698;48.072;7.800;2023-02-11T02:12:06;101483.06;;;-2.91;89.08
63552;BME280;49698;48.072;7.800;2023-02-11T02:14:37;101478.63;;;-2.90;89.52
63552;BME280;49698;48.072;7.800;2023-02-11T02:17:06;101470.88;;;-2.92;89.18
63552;BME280;49698;48.072;7.800;2023-02-11T02:20:02;101464.09;;;-2.95;89.21
63552;BME280;49698;48.072;7.800;2023-02-11T02:23:15;101454.69;;;-2.97;89.42
63552;BME280;49698;48.072;7.800;2023-02-11T02:26:26;101463.56;;;-2.98;89.18
63552;BME280;49698;48.072;7.800;2023-02-11T02:29:17;101453.06;;;-2.98;89.17
63552;BME280;49698;48.072;7.800;2023-02-11T02:32:08;101448.75;;;-2.99;89.34
63552;BME280;49698;48.072;7.800;2023-02-11T02:34:41;101456.63;;;-2.99;89.74
63552;BME280;49698;48.072;7.800;2023-02-11T02:37:14;101455.00;;;-3.00;89.20
63552;BME280;49698;48.072;7.800;2023-02-11T02:39:45;101455.97;;;-3.01;89.16
63552;BME280;49698;48.072;7.800;2023-02-11T02:42:15;101445.44;;;-3.01;88.95
63552;BME280;49698;48.072;7.800;2023-02-11T02:44:47;101450.97;;;-3.04;89.50
63552;BME280;49698;48.072;7.800;2023-02-11T02:47:16;101441.72;;;-3.08;89.55
63552;BME280;49698;48.072;7.800;2023-02-11T02:49:44;101451.53;;;-3.10;89.40
63552;BME280;49698;48.072;7.800;2023-02-11T02:52:23;101456.25;;;-3.14;89.58
63552;BME280;49698;48.072;7.800;2023-02-11T02:55:06;101452.13;;;-3.16;89.40
63552;BME280;49698;48.072;7.800;2023-02-11T02:57:46;101443.81;;;-3.22;89.76
63552;BME280;49698;48.072;7.800;2023-02-11T03:00:22;101433.63;;;-3.25;89.42
63552;BME280;49698;48.072;7.800;2023-02-11T03:03:11;101436.25;;;-3.25;89.66
63552;BME280;49698;48.072;7.800;2023-02-11T03:05:47;101433.63;;;-3.25;89.74
63552;BME280;49698;48.072;7.800;2023-02-11T03:08:24;101419.63;;;-3.25;89.68
63552;BME280;49698;48.072;7.800;2023-02-11T03:10:54;101418.94;;;-3.27;89.68
63552;BME280;49698;48.072;7.800;2023-02-11T03:13:26;101416.47;;;-3.29;89.68
63552;BME280;49698;48.072;7.800;2023-02-11T03:16:00;101408.69;;;-3.30;89.61
63552;BME280;49698;48.072;7.800;2023-02-11T03:18:34;101419.22;;;-3.30;89.82
63552;BME280;49698;48.072;7.800;2023-02-11T03:21:04;101418.22;;;-3.29;89.59
63552;BME280;49698;48.072;7.800;2023-02-11T03:23:37;101415.59;;;-3.29;89.64
63552;BME280;49698;48.072;7.800;2023-02-11T03:26:13;101409.53;;;-3.30;89.53
63552;BME280;49698;48.072;7.800;2023-02-11T03:28:48;101411.19;;;-3.29;89.45
63552;BME280;49698;48.072;7.800;2023-02-11T03:31:21;101405.94;;;-3.29;89.43
63552;BME280;49698;48.072;7.800;2023-02-11T03:33:59;101402.63;;;-3.31;89.49
63552;BME280;49698;48.072;7.800;2023-02-11T03:36:34;101401.78;;;-3.31;89.36
63552;BME280;49698;48.072;7.800;2023-02-11T03:39:04;101408.16;;;-3.34;89.47
63552;BME280;49698;48.072;7.800;2023-02-11T03:41:34;101411.75;;;-3.35;89.46
63552;BME280;49698;48.072;7.800;2023-02-11T03:44:04;101397.63;;;-3.34;89.51
63552;BME280;49698;48.072;7.800;2023-02-11T03:46:37;101408.16;;;-3.34;89.74
63552;BME280;49698;48.072;7.800;2023-02-11T03:49:08;101409.94;;;-3.34;89.59
63552;BME280;49698;48.072;7.800;2023-02-11T03:51:38;101397.78;;;-3.35;89.51
63552;BME280;49698;48.072;7.800;2023-02-11T03:54:09;101388.53;;;-3.39;89.39
63552;BME280;49698;48.072;7.800;2023-02-11T03:56:48;101394.06;;;-3.42;89.55
63552;BME280;49698;48.072;7.800;2023-02-11T03:59:16;101399.47;;;-3.44;89.72
63552;BME280;49698;48.072;7.800;2023-02-11T04:01:44;101397.13;;;-3.47;89.50
63552;BME280;49698;48.072;7.800;2023-02-11T04:04:14;101396.16;;;-3.46;89.37
63552;BME280;49698;48.072;7.800;2023-02-11T04:06:42;101400.59;;;-3.47;89.37
63552;BME280;49698;48.072;7.800;2023-02-11T04:09:10;101398.78;;;-3.46;89.75
63552;BME280;49698;48.072;7.800;2023-02-11T04:11:38;101398.78;;;-3.46;89.71
63552;BME280;49698;48.072;7.800;2023-02-11T04:14:06;101397.94;;;-3.47;89.79
63552;BME280;49698;48.072;7.800;2023-02-11T04:16:34;101393.94;;;-3.51;89.70
63552;BME280;49698;48.072;7.800;2023-02-11T04:19:02;101399.50;;;-3.54;90.03
63552;BME280;49698;48.072;7.800;2023-02-11T04:21:32;101401.28;;;-3.54;89.77
63552;BME280;49698;48.072;7.800;2023-02-11T04:24:00;101423.97;;;-3.53;90.06
63552;BME280;49698;48.072;7.800;2023-02-11T04:26:28;101426.88;;;-3.56;90.06
63552;BME280;49698;48.072;7.800;2023-02-11T04:28:56;101425.94;;;-3.55;89.74
63552;BME280;49698;48.072;7.800;2023-02-11T04:31:24;101434.50;;;-3.53;89.82
63552;BME280;49698;48.072;7.800;2023-02-11T04:33:52;101430.06;;;-3.53;89.60
63552;BME280;49698;48.072;7.800;2023-02-11T04:36:20;101429.50;;;-3.56;90.00
63552;BME280;49698;48.072;7.800;2023-02-11T04:38:49;101437.81;;;-3.61;89.90
63552;BME280;49698;48.072;7.800;2023-02-11T04:41:17;101442.53;;;-3.64;90.25
63552;BME280;49698;48.072;7.800;2023-02-11T04:43:45;101441.03;;;-3.67;90.30
63552;BME280;49698;48.072;7.800;2023-02-11T04:46:13;101447.22;;;-3.68;90.06
63552;BME280;49698;48.072;7.800;2023-02-11T04:48:41;101448.09;;;-3.67;90.02
63552;BME280;49698;48.072;7.800;2023-02-11T04:51:10;101448.91;;;-3.67;89.92
63552;BME280;49698;48.072;7.800;2023-02-11T04:53:38;101451.38;;;-3.65;89.81
63552;BME280;49698;48.072;7.800;2023-02-11T04:56:07;101458.28;;;-3.64;90.12
63552;BME280;49698;48.072;7.800;2023-02-11T04:58:35;101454.72;;;-3.63;89.90
63552;BME280;49698;48.072;7.800;2023-02-11T05:01:05;101455.38;;;-3.61;89.55
63552;BME280;49698;48.072;7.800;2023-02-11T05:03:33;101458.84;;;-3.61;89.98
63552;BME280;49698;48.072;7.800;2023-02-11T05:06:02;101455.38;;;-3.61;89.82
63552;BME280;49698;48.072;7.800;2023-02-11T05:08:30;101450.00;;;-3.60;89.56
63552;BME280;49698;48.072;7.800;2023-02-11T05:10:58;101437.00;;;-3.61;89.55
63552;BME280;49698;48.072;7.800;2023-02-11T05:13:29;101441.56;;;-3.63;89.57
63552;BME280;49698;48.072;7.800;2023-02-11T05:15:57;101439.78;;;-3.63;89.65
63552;BME280;49698;48.072;7.800;2023-02-11T05:18:25;101422.88;;;-3.60;89.69
63552;BME280;49698;48.072;7.800;2023-02-11T05:20:53;101416.66;;;-3.59;89.49
63552;BME280;49698;48.072;7.800;2023-02-11T05:23:21;101422.59;;;-3.57;89.33
63552;BME280;49698;48.072;7.800;2023-02-11T05:25:50;101409.88;;;-3.52;89.61
63552;BME280;49698;48.072;7.800;2023-02-11T05:28:18;101395.59;;;-3.50;89.64
63552;BME280;49698;48.072;7.800;2023-02-11T05:30:48;101398.78;;;-3.46;89.77
63552;BME280;49698;48.072;7.800;2023-02-11T05:33:16;101402.66;;;-3.40;89.13
63552;BME280;49698;48.072;7.800;2023-02-11T05:35:44;101406.66;;;-3.36;89.00
63552;BME280;49698;48.072;7.800;2023-02-11T05:38:12;101430.88;;;-3.33;89.30
63552;BME280;49698;48.072;7.800;2023-02-11T05:40:40;101432.53;;;-3.32;89.01
63552;BME280;49698;48.072;7.800;2023-02-11T05:43:08;101424.63;;;-3.32;88.95
63552;BME280;49698;48.072;7.800;2023-02-11T05:45:36;101427.81;;;-3.38;88.87
63552;BME280;49698;48.072;7.800;2023-02-11T05:48:05;101435.16;;;-3.41;89.39
63552;BME280;49698;48.072;7.800;2023-02-11T05:50:33;101433.66;;;-3.44;89.20
63552;BME280;49698;48.072;7.800;2023-02-11T05:53:02;101436.41;;;-3.46;89.32
63552;BME280;49698;48.072;7.800;2023-02-11T05:55:30;101423.41;;;-3.47;89.11
63552;BME280;49698;48.072;7.800;2023-02-11T05:57:58;101416.78;;;-3.51;89.29
63552;BME280;49698;48.072;7.800;2023-02-11T06:00:26;101404.63;;;-3.52;89.08
63552;BME280;49698;48.072;7.800;2023-02-11T06:02:54;101399.38;;;-3.52;89.25
63552;BME280;49698;48.072;7.800;2023-02-11T06:05:24;101402.13;;;-3.54;89.19
63552;BME280;49698;48.072;7.800;2023-02-11T06:07:52;101409.19;;;-3.54;89.11
63552;BME280;49698;48.072;7.800;2023-02-11T06:10:20;101397.69;;;-3.53;89.53
63552;BME280;49698;48.072;7.800;2023-02-11T06:12:48;101393.25;;;-3.53;89.41
63552;BME280;49698;48.072;7.800;2023-02-11T06:15:16;101390.50;;;-3.51;89.29
63552;BME280;49698;48.072;7.800;2023-02-11T06:17:44;101393.78;;;-3.49;89.34
63552;BME280;49698;48.072;7.800;2023-02-11T06:20:12;101392.84;;;-3.48;89.29
63552;BME280;49698;48.072;7.800;2023-02-11T06:22:42;101390.22;;;-3.48;89.11
63552;BME280;49698;48.072;7.800;2023-02-11T06:25:10;101384.97;;;-3.48;88.94
63552;BME280;49698;48.072;7.800;2023-02-11T06:27:39;101374.72;;;-3.51;88.98
63552;BME280;49698;48.072;7.800;2023-02-11T06:30:08;101374.03;;;-3.53;89.43
63552;BME280;49698;48.072;7.800;2023-02-11T06:32:36;101376.66;;;-3.53;89.24
63552;BME280;49698;48.072;7.800;2023-02-11T06:35:10;101373.06;;;-3.52;89.02
63552;BME280;49698;48.072;7.800;2023-02-11T06:37:38;101365.31;;;-3.54;89.31
63552;BME280;49698;48.072;7.800;2023-02-11T06:40:08;101352.88;;;-3.52;89.40
63552;BME280;49698;48.072;7.800;2023-02-11T06:42:36;101366.84;;;-3.51;88.86
63552;BME280;49698;48.072;7.800;2023-02-11T06:45:06;101362.56;;;-3.52;88.96
63552;BME280;49698;48.072;7.800;2023-02-11T06:47:35;101371.41;;;-3.53;89.27
63552;BME280;49698;48.072;7.800;2023-02-11T06:50:03;101374.31;;;-3.56;88.87
63552;BME280;49698;48.072;7.800;2023-02-11T06:52:32;101360.50;;;-3.58;89.00
63552;BME280;49698;48.072;7.800;2023-02-11T06:55:00;101361.47;;;-3.59;89.19
63552;BME280;49698;48.072;7.800;2023-02-11T06:57:30;101358.13;;;-3.61;89.05
63552;BME280;49698;48.072;7.800;2023-02-11T06:59:58;101367.00;;;-3.62;89.52
63552;BME280;49698;48.072;7.800;2023-02-11T07:02:26;101356.50;;;-3.62;89.39
63552;BME280;49698;48.072;7.800;2023-02-11T07:04:54;101368.38;;;-3.58;88.90
63552;BME280;49698;48.072;7.800;2023-02-11T07:07:22;101361.88;;;-3.54;89.14
63552;BME280;49698;48.072;7.800;2023-02-11T07:09:50;101372.66;;;-3.48;89.01
63552;BME280;49698;48.072;7.800;2023-02-11T07:12:18;101381.75;;;-3.42;88.97
63552;BME280;49698;48.072;7.800;2023-02-11T07:14:47;101385.47;;;-3.35;88.31
63552;BME280;49698;48.072;7.800;2023-02-11T07:17:15;101401.06;;;-3.24;88.43
63552;BME280;49698;48.072;7.800;2023-02-11T07:19:43;101398.25;;;-3.12;88.00
63552;BME280;49698;48.072;7.800;2023-02-11T07:22:11;101386.56;;;-3.00;87.71
63552;BME280;49698;48.072;7.800;2023-02-11T07:24:40;101393.59;;;-2.91;87.65
63552;BME280;49698;48.072;7.800;2023-02-11T07:27:09;101416.25;;;-2.80;87.59
63552;BME280;49698;48.072;7.800;2023-02-11T07:29:37;101417.34;;;-2.73;86.78
63552;BME280;49698;48.072;7.800;2023-02-11T07:32:07;101412.00;;;-2.63;86.60
63552;BME280;49698;48.072;7.800;2023-02-11T07:34:35;101419.69;;;-2.52;86.25
63552;BME280;49698;48.072;7.800;2023-02-11T07:37:03;101422.13;;;-2.41;85.95
63552;BME280;49698;48.072;7.800;2023-02-11T07:39:31;101430.66;;;-2.29;85.61
63552;BME280;49698;48.072;7.800;2023-02-11T07:41:59;101433.91;;;-2.17;85.64
63552;BME280;49698;48.072;7.800;2023-02-11T07:44:27;101438.81;;;-2.05;85.77
63552;BME280;49698;48.072;7.800;2023-02-11T07:46:55;101442.88;;;-1.92;84.60
63552;BME280;49698;48.072;7.800;2023-02-11T07:49:25;101440.16;;;-1.83;84.57
63552;BME280;49698;48.072;7.800;2023-02-11T07:51:53;101453.09;;;-1.72;84.39
63552;BME280;49698;48.072;7.800;2023-02-11T07:54:21;101454.50;;;-1.59;84.17
63552;BME280;49698;48.072;7.800;2023-02-11T07:56:49;101451.31;;;-1.45;83.98
63552;BME280;49698;48.072;7.800;2023-02-11T07:59:17;101445.81;;;-1.34;83.68
63552;BME280;49698;48.072;7.800;2023-02-11T08:01:45;101454.47;;;-1.24;83.43
63552;BME280;49698;48.072;7.800;2023-02-11T08:04:13;101448.84;;;-1.20;83.53
63552;BME280;49698;48.072;7.800;2023-02-11T08:06:42;101446.91;;;-1.18;83.40
63552;BME280;49698;48.072;7.800;2023-02-11T08:09:14;101447.53;;;-1.16;83.72
63552;BME280;49698;48.072;7.800;2023-02-11T08:11:43;101453.03;;;-1.10;84.06
63552;BME280;49698;48.072;7.800;2023-02-11T08:14:11;101459.81;;;-1.07;83.88
63552;BME280;49698;48.072;7.800;2023-02-11T08:16:40;101465.75;;;-1.05;83.93
63552;BME280;49698;48.072;7.800;2023-02-11T08:19:11;101461.53;;;-0.98;83.65
63552;BME280;49698;48.072;7.800;2023-02-11T08:21:40;101453.00;;;-0.92;83.53
63552;BME280;49698;48.072;7.800;2023-02-11T08:24:10;101460.13;;;-0.84;83.57
63552;BME280;49698;48.072;7.800;2023-02-11T08:26:38;101461.97;;;-0.77;83.44
63552;BME280;49698;48.072;7.800;2023-02-11T08:29:08;101461.69;;;-0.65;83.28
63552;BME280;49698;48.072;7.800;2023-02-11T08:31:39;101463.88;;;-0.53;83.37
63552;BME280;49698;48.072;7.800;2023-02-11T08:34:08;101468.41;;;-0.37;82.77
63552;BME280;49698;48.072;7.800;2023-02-11T08:36:38;101460.19;;;-0.17;82.39
63552;BME280;49698;48.072;7.800;2023-02-11T08:39:11;101454.78;;;0.17;81.51
63552;BME280;49698;48.072;7.800;2023-02-11T08:41:46;101451.66;;;0.38;80.60
63552;BME280;49698;48.072;7.800;2023-02-11T08:44:15;101450.16;;;0.60;80.21
63552;BME280;49698;48.072;7.800;2023-02-11T08:46:43;101455.91;;;0.80;79.60
63552;BME280;49698;48.072;7.800;2023-02-11T08:49:11;101453.91;;;0.98;78.77
63552;BME280;49698;48.072;7.800;2023-02-11T08:51:39;101452.81;;;1.23;78.29
63552;BME280;49698;48.072;7.800;2023-02-11T08:54:08;101464.72;;;1.98;76.50
63552;BME280;49698;48.072;7.800;2023-02-11T08:56:37;101457.34;;;2.31;75.24
63552;BME280;49698;48.072;7.800;2023-02-11T08:59:06;101461.06;;;3.12;73.11
63552;BME280;49698;48.072;7.800;2023-02-11T09:01:35;101458.59;;;4.62;68.24
63552;BME280;49698;48.072;7.800;2023-02-11T09:04:04;101448.69;;;6.08;63.85
63552;BME280;49698;48.072;7.800;2023-02-11T09:06:32;101453.84;;;7.54;59.88
63552;BME280;49698;48.072;7.800;2023-02-11T09:09:00;101449.81;;;8.72;56.38
63552;BME280;49698;48.072;7.800;2023-02-11T09:11:30;101444.63;;;9.69;54.30
63552;BME280;49698;48.072;7.800;2023-02-11T09:14:01;101455.63;;;10.39;52.13
63552;BME280;49698;48.072;7.800;2023-02-11T09:16:31;101455.75;;;10.68;51.25
63552;BME280;49698;48.072;7.800;2023-02-11T09:19:01;101449.78;;;10.42;52.13
63552;BME280;49698;48.072;7.800;2023-02-11T09:21:29;101452.13;;;10.09;52.64
63552;BME280;49698;48.072;7.800;2023-02-11T09:23:58;101446.13;;;9.46;54.45
63552;BME280;49698;48.072;7.800;2023-02-11T09:26:27;101447.91;;;8.79;55.71
63552;BME280;49698;48.072;7.800;2023-02-11T09:28:56;101446.47;;;8.51;56.67
63552;BME280;49698;48.072;7.800;2023-02-11T09:31:27;101452.63;;;8.27;57.43
63552;BME280;49698;48.072;7.800;2023-02-11T09:33:58;101453.81;;;8.31;57.47
63552;BME280;49698;48.072;7.800;2023-02-11T09:36:28;101444.06;;;8.43;57.07
63552;BME280;49698;48.072;7.800;2023-02-11T09:38:57;101446.28;;;8.53;56.58
63552;BME280;49698;48.072;7.800;2023-02-11T09:44:27;101449.69;;;8.85;55.30
63552;BME280;49698;48.072;7.800;2023-02-11T09:47:03;101450.38;;;9.17;54.71
63552;BME280;49698;48.072;7.800;2023-02-11T09:49:35;101437.88;;;9.29;54.01
63552;BME280;49698;48.072;7.800;2023-02-11T09:52:12;101436.97;;;9.17;53.86
63552;BME280;49698;48.072;7.800;2023-02-11T09:54:53;101446.88;;;9.17;53.69
63552;BME280;49698;48.072;7.800;2023-02-11T09:57:23;101443.19;;;9.18;53.54
63552;BME280;49698;48.072;7.800;2023-02-11T09:59:55;101445.09;;;9.29;52.67
63552;BME280;49698;48.072;7.800;2023-02-11T10:02:30;101442.13;;;9.37;52.58
63552;BME280;49698;48.072;7.800;2023-02-11T10:05:21;101441.72;;;9.52;52.12
63552;BME280;49698;48.072;7.800;2023-02-11T10:07:57;101443.75;;;9.57;51.93
63552;BME280;49698;48.072;7.800;2023-02-11T10:10:38;101449.94;;;9.57;51.43
63552;BME280;49698;48.072;7.800;2023-02-11T10:13:25;101457.63;;;9.35;51.73
63552;BME280;49698;48.072;7.800;2023-02-11T10:16:01;101449.00;;;9.15;52.22
63552;BME280;49698;48.072;7.800;2023-02-11T10:18:49;101448.66;;;9.04;52.11
63552;BME280;49698;48.072;7.800;2023-02-11T10:21:24;101450.06;;;8.89;52.82
63552;BME280;49698;48.072;7.800;2023-02-11T10:24:01;101434.59;;;8.66;53.24
63552;BME280;49698;48.072;7.800;2023-02-11T10:26:32;101445.47;;;8.52;53.43
63552;BME280;49698;48.072;7.800;2023-02-11T10:29:04;101434.41;;;8.36;53.64
63552;BME280;49698;48.072;7.800;2023-02-11T10:31:41;101425.94;;;8.14;54.29
63552;BME280;49698;48.072;7.800;2023-02-11T10:34:12;101420.34;;;7.83;54.91
63552;BME280;49698;48.072;7.800;2023-02-11T10:36:42;101429.09;;;7.66;55.61
63552;BME280;49698;48.072;7.800;2023-02-11T10:39:12;101423.38;;;7.55;55.73
63552;BME280;49698;48.072;7.800;2023-02-11T10:41:43;101436.16;;;7.47;56.25
63552;BME280;49698;48.072;7.800;2023-02-11T10:44:20;101427.53;;;7.45;56.28
63552;BME280;49698;48.072;7.800;2023-02-11T10:46:51;101427.97;;;7.42;56.31
63552;BME280;49698;48.072;7.800;2023-02-11T10:49:36;101422.19;;;7.45;56.45
63552;BME280;49698;48.072;7.800;2023-02-11T10:52:18;101423.25;;;7.44;56.05
63552;BME280;49698;48.072;7.800;2023-02-11T10:55:00;101422.38;;;7.43;56.26
63552;BME280;49698;48.072;7.800;2023-02-11T10:57:33;101414.81;;;7.40;56.22
63552;BME280;49698;48.072;7.800;2023-02-11T11:00:07;101397.50;;;7.43;56.14
63552;BME280;49698;48.072;7.800;2023-02-11T11:02:53;101401.19;;;7.48;55.98
63552;BME280;49698;48.072;7.800;2023-02-11T11:05:28;101406.13;;;7.51;55.88
63552;BME280;49698;48.072;7.800;2023-02-11T11:08:00;101402.56;;;7.57;56.02
63552;BME280;49698;48.072;7.800;2023-02-11T11:10:35;101402.56;;;7.57;56.10
63552;BME280;49698;48.072;7.800;2023-02-11T11:13:23;101397.22;;;7.57;56.24
63552;BME280;49698;48.072;7.800;2023-02-11T11:16:15;101394.53;;;7.57;56.22
63552;BME280;49698;48.072;7.800;2023-02-11T11:18:44;101397.03;;;7.59;56.45
63552;BME280;49698;48.072;7.800;2023-02-11T11:21:17;101381.78;;;7.59;56.53
63552;BME280;49698;48.072;7.800;2023-02-11T11:23:53;101388.16;;;7.58;56.24
63552;BME280;49698;48.072;7.800;2023-02-11T11:26:23;101390.25;;;7.56;55.99
63552;BME280;49698;48.072;7.800;2023-02-11T11:28:56;101381.16;;;7.57;55.36
63552;BME280;49698;48.072;7.800;2023-02-11T11:31:28;101371.91;;;7.60;55.15
63552;BME280;49698;48.072;7.800;2023-02-11T11:33:59;101370.19;;;7.66;54.65
63552;BME280;49698;48.072;7.800;2023-02-11T11:36:34;101358.22;;;7.75;53.80
63552;BME280;49698;48.072;7.800;2023-02-11T11:39:16;101350.81;;;7.70;53.03
63552;BME280;49698;48.072;7.800;2023-02-11T11:41:54;101343.78;;;7.76;52.82
63552;BME280;49698;48.072;7.800;2023-02-11T11:44:28;101336.41;;;7.71;52.26
63552;BME280;49698;48.072;7.800;2023-02-11T11:47:17;101336.19;;;7.73;52.67
63552;BME280;49698;48.072;7.800;2023-02-11T11:49:54;101338.41;;;7.82;52.27
63552;BME280;49698;48.072;7.800;2023-02-11T11:52:34;101347.56;;;7.93;52.00
63552;BME280;49698;48.072;7.800;2023-02-11T11:55:10;101329.59;;;8.00;51.33
63552;BME280;49698;48.072;7.800;2023-02-11T11:57:39;101322.56;;;8.06;51.13
63552;BME280;49698;48.072;7.800;2023-02-11T12:00:14;101314.31;;;8.07;51.00
63552;BME280;49698;48.072;7.800;2023-02-11T12:03:24;101310.56;;;8.08;50.80
63552;BME280;49698;48.072;7.800;2023-02-11T12:06:20;101310.38;;;8.10;50.29
63552;BME280;49698;48.072;7.800;2023-02-11T12:09:00;101306.59;;;8.18;50.10
63552;BME280;49698;48.072;7.800;2023-02-11T12:11:41;101298.28;;;8.26;49.53
63552;BME280;49698;48.072;7.800;2023-02-11T12:14:23;101295.88;;;8.43;48.91
63552;BME280;49698;48.072;7.800;2023-02-11T12:16:58;101298.41;;;8.56;48.28
63552;BME280;49698;48.072;7.800;2023-02-11T12:19:41;101298.78;;;8.60;48.07
63552;BME280;49698;48.072;7.800;2023-02-11T12:22:23;101292.09;;;8.69;47.84
63552;BME280;49698;48.072;7.800;2023-02-11T12:25:05;101283.50;;;8.78;47.52
63552;BME280;49698;48.072;7.800;2023-02-11T12:27:44;101289.97;;;8.89;47.32
63552;BME280;49698;48.072;7.800;2023-02-11T12:30:33;101296.91;;;8.97;47.30
63552;BME280;49698;48.072;7.800;2023-02-11T12:33:11;101295.19;;;9.02;47.28
63552;BME280;49698;48.072;7.800;2023-02-11T12:35:51;101292.63;;;9.07;46.92
63552;BME280;49698;48.072;7.800;2023-02-11T12:38:31;101291.47;;;9.03;46.71
63552;BME280;49698;48.072;7.800;2023-02-11T12:41:19;101297.44;;;8.87;46.76
63552;BME280;49698;48.072;7.800;2023-02-11T12:44:17;101297.75;;;8.79;47.30
63552;BME280;49698;48.072;7.800;2023-02-11T12:46:53;101291.16;;;8.75;47.32
63552;BME280;49698;48.072;7.800;2023-02-11T12:49:42;101292.38;;;8.79;47.03
63552;BME280;49698;48.072;7.800;2023-02-11T12:52:22;101287.97;;;8.85;46.73
63552;BME280;49698;48.072;7.800;2023-02-11T12:54:57;101293.72;;;8.88;46.13
63552;BME280;49698;48.072;7.800;2023-02-11T12:57:30;101286.25;;;8.90;45.78
63552;BME280;49698;48.072;7.800;2023-02-11T13:00:02;101288.28;;;8.95;45.62
63552;BME280;49698;48.072;7.800;2023-02-11T13:02:38;101278.63;;;9.05;45.55
63552;BME280;49698;48.072;7.800;2023-02-11T13:05:18;101284.72;;;9.13;45.45
63552;BME280;49698;48.072;7.800;2023-02-11T13:07:50;101290.81;;;9.20;45.87
63552;BME280;49698;48.072;7.800;2023-02-11T13:10:29;101283.13;;;9.23;45.99
63552;BME280;49698;48.072;7.800;2023-02-11T13:13:01;101283.00;;;9.18;46.65
63552;BME280;49698;48.072;7.800;2023-02-11T13:15:49;101278.00;;;9.22;46.42
63552;BME280;49698;48.072;7.800;2023-02-11T13:18:34;101274.47;;;9.21;46.78
63552;BME280;49698;48.072;7.800;2023-02-11T13:21:18;101273.34;;;9.29;46.63
63552;BME280;49698;48.072;7.800;2023-02-11T13:23:53;101274.88;;;9.37;46.61